Salt Lake City, Utah
Traffic Map
Current Weather Conditions
Salt Lake City, Utah
Few Clouds
Few Clouds
87°
Feels Like: 87°
Wind Chill: 87° Ceiling: Unl
Heat Index: 87° Visibility: 10mi
Dew Point: 33° Wind: 13mph
Humidity: 15% Direction: 300° (WNW)
Pressure: 29.86in Gusts: 0mph
Raw Report DataKSLC 182154Z 30011KT 10SM FEW050 31/01 A2986 RMK AO2 SLP051 FU FEW050 FU DSNT SE T03060006
Traffic Incident Summary
Active as of:
Severity:
Category:
InformationThere was an issue retrieving the traffic information for this location. Please try a different location or try again shortly.
Advertisements